createdAt,value
2022-11-29T00:01:42.232Z,-0.14
2022-11-29T00:04:10.893Z,-0.18
2022-11-29T00:06:39.532Z,-0.23
2022-11-29T00:09:11.648Z,-0.28
2022-11-29T00:12:00.221Z,-0.32
2022-11-29T00:14:29.241Z,-0.35
2022-11-29T00:17:02.190Z,-0.40
2022-11-29T00:19:33.373Z,-0.41
2022-11-29T00:22:02.416Z,-0.43
2022-11-29T00:24:32.743Z,-0.46
2022-11-29T00:27:01.102Z,-0.47
2022-11-29T00:29:30.324Z,-0.44
2022-11-29T00:31:58.498Z,-0.45
2022-11-29T00:34:26.576Z,-0.48
2022-11-29T00:36:54.872Z,-0.52
2022-11-29T00:39:23.475Z,-0.56
2022-11-29T00:41:51.430Z,-0.58
2022-11-29T00:44:20.609Z,-0.61
2022-11-29T00:46:49.444Z,-0.64
2022-11-29T00:49:17.565Z,-0.64
2022-11-29T00:51:46.658Z,-0.67
2022-11-29T00:54:15.158Z,-0.68
2022-11-29T00:56:43.912Z,-0.70
2022-11-29T00:59:12.147Z,-0.75
2022-11-29T01:01:40.219Z,-0.79
2022-11-29T01:04:08.455Z,-0.81
2022-11-29T01:06:36.587Z,-0.85
2022-11-29T01:09:05.061Z,-0.88
2022-11-29T01:11:33.532Z,-0.90
2022-11-29T01:14:03.057Z,-0.94
2022-11-29T01:16:32.061Z,-0.96
2022-11-29T01:19:00.683Z,-0.99
2022-11-29T01:21:28.961Z,-1.01
2022-11-29T01:23:57.584Z,-1.03
2022-11-29T01:26:27.657Z,-1.06
2022-11-29T01:28:57.930Z,-1.09
2022-11-29T01:31:36.410Z,-1.11
2022-11-29T01:34:05.877Z,-1.12
2022-11-29T01:36:35.313Z,-1.11
2022-11-29T01:39:05.737Z,-1.09
2022-11-29T01:41:35.028Z,-1.06
2022-11-29T01:44:12.312Z,-1.04
2022-11-29T01:46:43.522Z,-1.07
2022-11-29T01:49:22.562Z,-1.13
2022-11-29T01:51:55.483Z,-1.18
2022-11-29T01:54:23.620Z,-1.22
2022-11-29T01:56:52.970Z,-1.28
2022-11-29T01:59:25.909Z,-1.32
2022-11-29T02:02:02.974Z,-1.35
2022-11-29T02:04:34.998Z,-1.38
2022-11-29T02:07:03.798Z,-1.39
2022-11-29T02:09:31.891Z,-1.38
2022-11-29T02:12:06.172Z,-1.36
2022-11-29T02:14:37.053Z,-1.34
2022-11-29T02:17:27.747Z,-1.31
2022-11-29T02:20:26.754Z,-1.30
2022-11-29T02:23:13.520Z,-1.29
2022-11-29T02:26:03.263Z,-1.28
2022-11-29T02:28:56.209Z,-1.27
2022-11-29T02:31:35.548Z,-1.29
2022-11-29T02:34:06.348Z,-1.30
2022-11-29T02:36:34.422Z,-1.31
2022-11-29T02:39:05.429Z,-1.33
2022-11-29T02:41:55.155Z,-1.32
2022-11-29T02:44:40.495Z,-1.32
2022-11-29T02:47:32.766Z,-1.32
2022-11-29T02:50:19.008Z,-1.29
2022-11-29T02:53:20.152Z,-1.27
2022-11-29T02:56:07.128Z,-1.26
2022-11-29T02:58:45.885Z,-1.26
2022-11-29T03:01:24.013Z,-1.25
2022-11-29T03:04:09.924Z,-1.26
2022-11-29T03:06:57.103Z,-1.27
2022-11-29T03:09:36.499Z,-1.32
2022-11-29T03:12:25.969Z,-1.38
2022-11-29T03:15:16.274Z,-1.46
2022-11-29T03:18:33.507Z,-1.54
2022-11-29T03:21:13.987Z,-1.56
2022-11-29T03:23:50.221Z,-1.57
2022-11-29T03:26:26.851Z,-1.52
2022-11-29T03:28:54.869Z,-1.52
2022-11-29T03:31:36.183Z,-1.52
2022-11-29T03:34:09.863Z,-1.52
2022-11-29T03:36:54.867Z,-1.54
2022-11-29T03:39:33.517Z,-1.54
2022-11-29T03:42:11.793Z,-1.55
2022-11-29T03:44:51.364Z,-1.56
2022-11-29T03:47:29.089Z,-1.62
2022-11-29T03:50:05.675Z,-1.69
2022-11-29T03:52:55.820Z,-1.76
2022-11-29T03:55:48.604Z,-1.85
2022-11-29T03:58:22.890Z,-1.91
2022-11-29T04:00:50.824Z,-1.96
2022-11-29T04:03:53.235Z,-1.99
2022-11-29T04:06:50.013Z,-2.01
2022-11-29T04:09:36.583Z,-2.03
2022-11-29T04:12:21.502Z,-2.05
2022-11-29T04:15:04.136Z,-2.08
2022-11-29T04:17:49.081Z,-2.10
2022-11-29T04:20:45.442Z,-2.13
2022-11-29T04:23:22.061Z,-2.16
2022-11-29T04:26:11.891Z,-2.16
2022-11-29T04:29:04.956Z,-2.21
2022-11-29T04:31:33.175Z,-2.27
2022-11-29T04:34:07.342Z,-2.31
2022-11-29T04:37:13.407Z,-2.34
2022-11-29T04:40:00.525Z,-2.37
2022-11-29T04:42:34.537Z,-2.41
2022-11-29T04:45:44.532Z,-2.45
2022-11-29T04:48:30.647Z,-2.48
2022-11-29T04:51:24.838Z,-2.51
2022-11-29T04:54:06.985Z,-2.51
2022-11-29T04:57:08.327Z,-2.53
2022-11-29T05:00:00.893Z,-2.55
2022-11-29T05:02:53.516Z,-2.59
2022-11-29T05:05:43.730Z,-2.61
2022-11-29T05:08:36.964Z,-2.65
2022-11-29T05:11:32.667Z,-2.74
2022-11-29T05:14:28.488Z,-2.81
2022-11-29T05:17:08.970Z,-2.85
2022-11-29T05:20:07.082Z,-2.89
2022-11-29T05:22:35.154Z,-2.90
2022-11-29T05:25:18.756Z,-2.92
2022-11-29T05:27:52.530Z,-2.93
2022-11-29T05:30:23.208Z,-2.93
2022-11-29T05:33:09.503Z,-2.87
2022-11-29T05:35:55.062Z,-2.84
2022-11-29T05:39:15.593Z,-2.80
2022-11-29T05:42:08.494Z,-2.74
2022-11-29T05:44:47.746Z,-2.68
2022-11-29T05:47:29.774Z,-2.64
2022-11-29T05:50:08.834Z,-2.59
2022-11-29T05:53:07.487Z,-2.55
2022-11-29T05:55:59.554Z,-2.50
2022-11-29T05:58:39.753Z,-2.47
2022-11-29T06:01:22.905Z,-2.43
2022-11-29T06:04:20.911Z,-2.38
2022-11-29T06:07:25.314Z,-2.37
2022-11-29T06:10:01.629Z,-2.36
2022-11-29T06:12:35.067Z,-2.39
2022-11-29T06:15:16.568Z,-2.42
2022-11-29T06:18:29.509Z,-2.45
2022-11-29T06:20:58.694Z,-2.49
2022-11-29T06:23:51.090Z,-2.51
2022-11-29T06:26:34.468Z,-2.54
2022-11-29T06:29:24.721Z,-2.56
2022-11-29T06:32:08.546Z,-2.54
2022-11-29T06:34:47.262Z,-2.52
2022-11-29T06:37:27.283Z,-2.49
2022-11-29T06:39:55.856Z,-2.42
2022-11-29T06:42:24.014Z,-2.31
2022-11-29T06:44:52.519Z,-2.19
2022-11-29T06:47:55.512Z,-2.09
2022-11-29T06:50:33.100Z,-2.08
2022-11-29T06:53:29.748Z,-2.14
2022-11-29T06:56:41.886Z,-2.14
2022-11-29T06:59:29.037Z,-2.13
2022-11-29T07:02:06.014Z,-2.15
2022-11-29T07:05:05.405Z,-2.15
2022-11-29T07:07:35.331Z,-2.12
2022-11-29T07:10:08.312Z,-2.08
2022-11-29T07:12:40.559Z,-2.04
2022-11-29T07:15:14.296Z,-2.04
2022-11-29T07:18:09.246Z,-2.03
2022-11-29T07:21:08.828Z,-1.96
2022-11-29T07:23:58.844Z,-1.89
2022-11-29T07:26:35.072Z,-1.89
2022-11-29T07:29:41.503Z,-1.88
2022-11-29T07:33:03.930Z,-1.84
2022-11-29T07:35:32.033Z,-1.83
2022-11-29T07:38:11.508Z,-1.80
2022-11-29T07:40:58.511Z,-1.73
2022-11-29T07:43:29.743Z,-1.64
2022-11-29T07:45:57.924Z,-1.54
2022-11-29T07:48:27.018Z,-1.45
2022-11-29T07:50:56.376Z,-1.37
2022-11-29T07:53:24.891Z,-1.34
2022-11-29T07:55:53.314Z,-1.31
2022-11-29T07:58:21.579Z,-1.29
2022-11-29T08:00:49.792Z,-1.28
2022-11-29T08:03:18.276Z,-1.28
2022-11-29T08:05:47.950Z,-1.24
2022-11-29T08:08:16.380Z,-1.15
2022-11-29T08:10:45.366Z,-1.05
2022-11-29T08:13:14.187Z,-0.98
2022-11-29T08:15:46.748Z,-0.95
2022-11-29T08:18:17.810Z,-0.88
2022-11-29T08:20:46.481Z,-0.74
2022-11-29T08:23:14.816Z,-0.59
2022-11-29T08:25:42.942Z,-0.43
2022-11-29T08:28:11.383Z,-0.28
2022-11-29T08:30:39.626Z,-0.19
2022-11-29T08:33:07.862Z,-0.22
2022-11-29T08:35:36.479Z,-0.20
2022-11-29T08:38:05.091Z,-0.15
2022-11-29T08:40:33.220Z,-0.07
2022-11-29T08:43:01.296Z,0.04
2022-11-29T08:45:29.431Z,0.14
2022-11-29T08:47:57.487Z,0.20
2022-11-29T08:50:25.850Z,0.24
2022-11-29T08:53:12.854Z,0.23
2022-11-29T08:55:43.169Z,0.24
2022-11-29T08:58:13.996Z,0.29
2022-11-29T09:00:43.579Z,0.32
2022-11-29T09:03:30.536Z,0.41
2022-11-29T09:05:59.381Z,0.47
2022-11-29T09:08:27.476Z,0.52
2022-11-29T09:10:55.550Z,0.55
2022-11-29T09:13:23.612Z,0.60
2022-11-29T09:15:52.213Z,0.68
2022-11-29T09:18:22.728Z,0.80
2022-11-29T09:20:50.629Z,0.94
2022-11-29T09:23:18.565Z,1.10
2022-11-29T09:25:50.187Z,1.23
2022-11-29T09:28:18.292Z,1.38
2022-11-29T09:30:46.427Z,1.53
2022-11-29T09:33:14.388Z,1.67
2022-11-29T09:35:42.678Z,1.84
2022-11-29T09:38:12.426Z,1.99
2022-11-29T09:40:52.365Z,2.16
2022-11-29T09:43:41.956Z,2.32
2022-11-29T09:46:30.329Z,2.50
2022-11-29T09:49:13.532Z,2.64
2022-11-29T09:54:49.456Z,2.94
2022-11-29T09:57:19.851Z,3.06
2022-11-29T09:59:51.420Z,3.17
2022-11-29T10:02:34.725Z,3.29
2022-11-29T10:05:26.365Z,3.39
2022-11-29T10:08:07.329Z,3.55
2022-11-29T10:10:46.392Z,3.66
2022-11-29T10:13:35.722Z,3.80
2022-11-29T10:16:14.522Z,3.93
2022-11-29T10:18:54.510Z,4.08
2022-11-29T10:21:28.511Z,4.23
2022-11-29T10:24:02.364Z,4.33
2022-11-29T10:26:35.152Z,4.47
2022-11-29T10:29:04.281Z,4.60
2022-11-29T10:31:37.221Z,4.73
2022-11-29T10:34:15.690Z,4.85
2022-11-29T10:36:59.807Z,4.97
2022-11-29T10:39:39.839Z,5.09
2022-11-29T10:42:39.067Z,5.21
2022-11-29T10:45:25.444Z,5.33
2022-11-29T10:48:01.874Z,5.44
2022-11-29T10:50:33.792Z,5.55
2022-11-29T10:53:07.304Z,5.59
2022-11-29T10:55:55.029Z,5.70
2022-11-29T10:58:28.336Z,5.79
2022-11-29T11:01:11.398Z,5.83
2022-11-29T11:03:52.785Z,5.92
2022-11-29T11:06:43.163Z,6.06
2022-11-29T11:09:23.320Z,6.20
2022-11-29T11:11:55.800Z,6.30
2022-11-29T11:14:27.882Z,6.40
2022-11-29T11:16:56.307Z,6.50
2022-11-29T11:19:29.352Z,6.59
2022-11-29T11:22:03.484Z,6.67
2022-11-29T11:24:36.120Z,6.73
2022-11-29T11:27:05.029Z,6.77
2022-11-29T11:29:40.431Z,6.78
2022-11-29T11:32:17.963Z,6.84
2022-11-29T11:35:22.605Z,6.92
2022-11-29T11:37:57.694Z,7.04
2022-11-29T11:40:29.360Z,7.12
2022-11-29T11:43:03.024Z,7.19
2022-11-29T11:45:35.466Z,7.30
2022-11-29T11:48:16.367Z,7.37
2022-11-29T11:50:45.700Z,7.49
2022-11-29T11:53:33.936Z,7.58
2022-11-29T11:56:09.768Z,7.63
2022-11-29T11:58:54.862Z,7.69
2022-11-29T12:01:44.382Z,7.75
2022-11-29T12:04:17.979Z,7.83
2022-11-29T12:06:55.240Z,7.90
2022-11-29T12:09:35.111Z,7.94
2022-11-29T12:12:17.730Z,7.99
2022-11-29T12:15:01.574Z,8.03
2022-11-29T12:17:46.629Z,8.08
2022-11-29T12:20:23.963Z,8.13
2022-11-29T12:22:58.119Z,8.18
2022-11-29T12:25:35.340Z,8.21
2022-11-29T12:28:03.923Z,8.24
2022-11-29T12:30:33.969Z,8.21
2022-11-29T12:33:24.204Z,8.21
2022-11-29T12:36:36.716Z,8.25
2022-11-29T12:39:37.186Z,8.29
2022-11-29T12:42:28.697Z,8.37
2022-11-29T12:44:57.396Z,8.45
2022-11-29T12:48:03.812Z,8.52
2022-11-29T12:51:08.130Z,8.68
2022-11-29T12:54:19.367Z,8.80
2022-11-29T12:57:05.740Z,8.91
2022-11-29T12:59:58.273Z,8.96
2022-11-29T13:02:29.477Z,9.07
2022-11-29T13:05:24.799Z,9.16
2022-11-29T13:08:23.717Z,9.35
2022-11-29T13:11:17.741Z,9.54
2022-11-29T13:14:41.596Z,9.73
2022-11-29T13:17:05.393Z,9.96
2022-11-29T13:19:42.638Z,10.03
2022-11-29T13:22:44.418Z,10.14
2022-11-29T13:25:18.916Z,10.23
2022-11-29T13:28:07.277Z,10.38
2022-11-29T13:30:36.016Z,10.50
2022-11-29T13:33:32.564Z,10.62
2022-11-29T13:36:00.612Z,10.78
2022-11-29T13:38:54.816Z,10.91
2022-11-29T13:41:46.371Z,11.04
2022-11-29T13:44:19.841Z,11.13
2022-11-29T13:47:07.272Z,11.12
2022-11-29T13:49:54.277Z,11.10
2022-11-29T13:52:47.354Z,11.12
2022-11-29T13:55:28.969Z,11.13
2022-11-29T13:58:16.661Z,11.07
2022-11-29T14:00:45.434Z,11.03
2022-11-29T14:03:29.025Z,10.98
2022-11-29T14:06:18.708Z,10.85
2022-11-29T14:09:27.334Z,10.73
2022-11-29T14:12:06.590Z,10.66
2022-11-29T14:14:42.018Z,10.53
2022-11-29T14:17:37.425Z,10.40
2022-11-29T14:20:24.443Z,10.28
2022-11-29T14:23:05.490Z,10.16
2022-11-29T14:25:51.301Z,9.97
2022-11-29T14:28:22.359Z,9.66
2022-11-29T14:30:55.426Z,9.30
2022-11-29T14:33:47.035Z,8.89
2022-11-29T14:36:15.434Z,8.46
2022-11-29T14:39:02.080Z,8.07
2022-11-29T14:41:52.238Z,7.65
2022-11-29T14:44:25.487Z,7.25
2022-11-29T14:47:32.078Z,6.91
2022-11-29T14:50:04.247Z,6.51
2022-11-29T14:52:52.420Z,6.19
2022-11-29T14:55:20.552Z,5.87
2022-11-29T14:57:54.754Z,5.60
2022-11-29T15:00:34.958Z,5.35
2022-11-29T15:03:14.037Z,5.09
2022-11-29T15:05:46.401Z,4.86
2022-11-29T15:08:20.662Z,4.63
2022-11-29T15:10:57.623Z,4.44
2022-11-29T15:13:35.004Z,4.26
2022-11-29T15:16:09.294Z,4.08
2022-11-29T15:19:13.540Z,3.92
2022-11-29T15:22:13.959Z,3.74
2022-11-29T15:24:55.698Z,3.59
2022-11-29T15:27:25.372Z,3.45
2022-11-29T15:29:55.369Z,3.32
2022-11-29T15:32:32.830Z,3.20
2022-11-29T15:35:02.419Z,3.09
2022-11-29T15:37:37.424Z,2.99
2022-11-29T15:40:21.273Z,2.90
2022-11-29T15:43:12.513Z,2.81
2022-11-29T15:45:46.036Z,2.76
2022-11-29T15:48:19.721Z,2.70
2022-11-29T15:51:07.243Z,2.63
2022-11-29T15:53:35.334Z,2.56
2022-11-29T15:56:11.576Z,2.50
2022-11-29T15:58:40.153Z,2.43
2022-11-29T16:01:09.442Z,2.39
2022-11-29T16:03:41.056Z,2.34
2022-11-29T16:06:26.477Z,2.28
2022-11-29T16:08:58.812Z,2.22
2022-11-29T16:11:34.487Z,2.17
2022-11-29T16:14:22.629Z,2.13
2022-11-29T16:16:53.364Z,2.10
2022-11-29T16:19:31.234Z,2.08
2022-11-29T16:22:08.467Z,2.04
2022-11-29T16:24:39.149Z,2.01
2022-11-29T16:27:08.277Z,2.00
2022-11-29T16:29:41.878Z,1.99
2022-11-29T16:32:35.224Z,1.97
2022-11-29T16:35:14.230Z,1.97
2022-11-29T16:37:44.566Z,1.97
2022-11-29T16:40:38.986Z,1.97
2022-11-29T16:43:24.161Z,1.97
2022-11-29T16:46:20.666Z,1.97
2022-11-29T16:49:03.689Z,1.97
2022-11-29T16:51:39.220Z,1.98
2022-11-29T16:54:26.180Z,1.99
2022-11-29T16:56:57.331Z,1.99
2022-11-29T16:59:28.554Z,2.01
2022-11-29T17:01:57.428Z,2.02
2022-11-29T17:04:26.302Z,2.03
2022-11-29T17:06:57.193Z,2.01
2022-11-29T17:09:33.220Z,1.98
2022-11-29T17:12:03.351Z,1.94
2022-11-29T17:14:32.244Z,1.91
2022-11-29T17:17:01.400Z,1.89
2022-11-29T17:19:31.441Z,1.86
2022-11-29T17:22:02.142Z,1.83
2022-11-29T17:24:30.293Z,1.78
2022-11-29T17:26:59.032Z,1.74
2022-11-29T17:29:30.140Z,1.70
2022-11-29T17:31:58.906Z,1.67
2022-11-29T17:34:26.968Z,1.63
2022-11-29T17:36:57.837Z,1.60
2022-11-29T17:39:26.945Z,1.56
2022-11-29T17:41:56.193Z,1.52
2022-11-29T17:44:24.248Z,1.48
2022-11-29T17:46:53.045Z,1.43
2022-11-29T17:49:21.175Z,1.39
2022-11-29T17:51:52.396Z,1.36
2022-11-29T17:54:27.208Z,1.32
2022-11-29T17:56:56.334Z,1.29
2022-11-29T17:59:28.640Z,1.25
2022-11-29T18:01:57.024Z,1.19
2022-11-29T18:04:25.612Z,1.14
2022-11-29T18:06:55.188Z,1.09
2022-11-29T18:09:23.352Z,1.04
2022-11-29T18:11:53.180Z,1.01
2022-11-29T18:14:23.977Z,0.98
2022-11-29T18:16:52.538Z,0.95
2022-11-29T18:19:22.832Z,0.93
2022-11-29T18:21:52.351Z,0.91
2022-11-29T18:24:20.536Z,0.89
2022-11-29T18:26:49.149Z,0.87
2022-11-29T18:29:17.560Z,0.86
2022-11-29T18:31:49.782Z,0.84
2022-11-29T18:34:17.883Z,0.81
2022-11-29T18:36:48.895Z,0.79
2022-11-29T18:39:20.735Z,0.75
2022-11-29T18:41:50.135Z,0.71
2022-11-29T18:44:21.173Z,0.68
2022-11-29T18:46:51.159Z,0.65
2022-11-29T18:49:19.886Z,0.63
2022-11-29T18:51:50.043Z,0.61
2022-11-29T18:54:19.402Z,0.61
2022-11-29T18:56:50.222Z,0.64
2022-11-29T18:59:18.514Z,0.63
2022-11-29T19:01:48.576Z,0.63
2022-11-29T19:04:21.169Z,0.62
2022-11-29T19:06:49.668Z,0.59
2022-11-29T19:09:21.461Z,0.60
2022-11-29T19:11:51.186Z,0.63
2022-11-29T19:14:19.484Z,0.66
2022-11-29T19:16:50.159Z,0.66
2022-11-29T19:19:19.566Z,0.67
2022-11-29T19:21:48.868Z,0.66
2022-11-29T19:24:18.385Z,0.65
2022-11-29T19:26:50.371Z,0.66
2022-11-29T19:29:20.605Z,0.65
2022-11-29T19:31:50.480Z,0.64
2022-11-29T19:34:19.163Z,0.62
2022-11-29T19:36:47.250Z,0.61
2022-11-29T19:39:17.050Z,0.59
2022-11-29T19:41:48.101Z,0.59
2022-11-29T19:44:18.149Z,0.59
2022-11-29T19:46:48.827Z,0.58
2022-11-29T19:49:17.156Z,0.58
2022-11-29T19:51:45.355Z,0.61
2022-11-29T19:54:13.472Z,0.61
2022-11-29T19:56:42.153Z,0.63
2022-11-29T19:59:10.328Z,0.65
2022-11-29T20:01:41.431Z,0.67
2022-11-29T20:04:13.019Z,0.69
2022-11-29T20:06:41.183Z,0.69
2022-11-29T20:09:11.787Z,0.68
2022-11-29T20:11:39.821Z,0.64
2022-11-29T20:14:08.924Z,0.58
2022-11-29T20:16:39.180Z,0.48
2022-11-29T20:19:15.904Z,0.48
2022-11-29T20:21:49.098Z,0.46
2022-11-29T20:24:19.458Z,0.45
2022-11-29T20:26:49.091Z,0.38
2022-11-29T20:29:18.157Z,0.32
2022-11-29T20:31:50.518Z,0.26
2022-11-29T20:34:20.499Z,0.20
2022-11-29T20:37:24.139Z,0.15
2022-11-29T20:40:01.899Z,0.10
2022-11-29T20:42:49.764Z,0.06
2022-11-29T20:45:18.503Z,0.03
2022-11-29T20:47:46.566Z,-0.02
2022-11-29T20:50:23.831Z,-0.05
2022-11-29T20:53:07.680Z,-0.11
2022-11-29T20:55:42.625Z,-0.16
2022-11-29T20:58:13.469Z,-0.22
2022-11-29T21:00:41.860Z,-0.24
2022-11-29T21:03:14.471Z,-0.25
2022-11-29T21:05:42.918Z,-0.26
2022-11-29T21:08:11.356Z,-0.25
2022-11-29T21:10:40.047Z,-0.26
2022-11-29T21:13:10.899Z,-0.24
2022-11-29T21:15:41.189Z,-0.24
2022-11-29T21:18:19.989Z,-0.25
2022-11-29T21:21:00.229Z,-0.26
2022-11-29T21:23:34.375Z,-0.26
2022-11-29T21:26:10.605Z,-0.26
2022-11-29T21:28:46.999Z,-0.25
2022-11-29T21:31:17.879Z,-0.26
2022-11-29T21:33:46.324Z,-0.30
2022-11-29T21:36:14.436Z,-0.34
2022-11-29T21:38:42.592Z,-0.38
2022-11-29T21:41:11.876Z,-0.38
2022-11-29T21:44:05.513Z,-0.42
2022-11-29T21:46:28.823Z,-0.47
2022-11-29T21:48:56.880Z,-0.51
2022-11-29T21:51:25.036Z,-0.53
2022-11-29T21:53:53.085Z,-0.58
2022-11-29T21:56:21.066Z,-0.61
2022-11-29T21:58:49.179Z,-0.62
2022-11-29T22:01:19.756Z,-0.65
2022-11-29T22:03:48.183Z,-0.67
2022-11-29T22:06:21.276Z,-0.68
2022-11-29T22:08:52.337Z,-0.69
2022-11-29T22:11:31.417Z,-0.66
2022-11-29T22:14:19.979Z,-0.63
2022-11-29T22:16:51.032Z,-0.59
2022-11-29T22:19:23.670Z,-0.58
2022-11-29T22:22:05.499Z,-0.54
2022-11-29T22:24:36.335Z,-0.53
2022-11-29T22:27:04.526Z,-0.53
2022-11-29T22:29:32.671Z,-0.57
2022-11-29T22:32:01.313Z,-0.62
2022-11-29T22:34:29.423Z,-0.67
2022-11-29T22:36:57.558Z,-0.70
2022-11-29T22:39:25.782Z,-0.75
2022-11-29T22:41:54.925Z,-0.76
2022-11-29T22:44:24.643Z,-0.77
2022-11-29T22:46:54.037Z,-0.81
2022-11-29T22:49:22.234Z,-0.83
2022-11-29T22:51:50.422Z,-0.87
2022-11-29T22:54:18.488Z,-0.90
2022-11-29T22:56:47.264Z,-0.94
2022-11-29T22:59:15.256Z,-0.98
2022-11-29T23:01:43.657Z,-1.03
2022-11-29T23:04:13.307Z,-1.07
2022-11-29T23:06:43.874Z,-1.11
2022-11-29T23:09:19.908Z,-1.10
2022-11-29T23:11:56.373Z,-1.08
2022-11-29T23:14:24.871Z,-1.07
2022-11-29T23:16:53.216Z,-1.06
2022-11-29T23:19:21.564Z,-1.04
2022-11-29T23:21:49.785Z,-1.01
2022-11-29T23:24:17.919Z,-0.99
2022-11-29T23:26:47.439Z,-0.98
2022-11-29T23:29:18.627Z,-0.97
2022-11-29T23:31:47.541Z,-0.97
2022-11-29T23:34:15.748Z,-0.97
2022-11-29T23:36:52.393Z,-0.96
2022-11-29T23:39:21.256Z,-0.98
2022-11-29T23:41:49.373Z,-0.97
2022-11-29T23:44:17.413Z,-0.97
2022-11-29T23:46:45.420Z,-0.98
2022-11-29T23:49:13.557Z,-0.99
2022-11-29T23:51:42.519Z,-0.99
2022-11-29T23:54:10.568Z,-0.99
2022-11-29T23:56:38.724Z,-1.06
2022-11-29T23:59:06.819Z,-1.07
